createdAt,value
2023-04-10T00:00:41.556Z,97.06
2023-04-10T00:02:44.935Z,95.77
2023-04-10T00:04:49.722Z,93.81
2023-04-10T00:06:52.580Z,94.62
2023-04-10T00:08:55.347Z,94.01
2023-04-10T00:10:58.114Z,94.78
2023-04-10T00:13:03.525Z,95.15
2023-04-10T00:15:07.166Z,94.99
2023-04-10T00:17:10.076Z,96.35
2023-04-10T00:19:12.887Z,95.22
2023-04-10T00:21:17.408Z,97.03
2023-04-10T00:23:20.235Z,99.27
2023-04-10T00:25:24.074Z,100.00
2023-04-10T00:27:26.902Z,100.00
2023-04-10T00:29:29.706Z,99.91
2023-04-10T00:31:32.621Z,99.07
2023-04-10T00:33:35.549Z,98.06
2023-04-10T00:35:38.329Z,95.03
2023-04-10T00:37:42.525Z,96.21
2023-04-10T00:39:45.442Z,96.90
2023-04-10T00:41:48.223Z,96.08
2023-04-10T00:43:51.244Z,95.53
2023-04-10T00:45:54.248Z,96.04
2023-04-10T00:47:57.451Z,95.68
2023-04-10T00:50:01.298Z,96.13
2023-04-10T00:52:04.224Z,95.89
2023-04-10T00:54:10.332Z,97.59
2023-04-10T00:56:13.315Z,95.99
2023-04-10T00:58:17.460Z,96.76
2023-04-10T01:00:20.234Z,97.09
2023-04-10T01:02:24.225Z,98.32
2023-04-10T01:04:28.804Z,99.16
2023-04-10T01:06:49.313Z,98.09
2023-04-10T01:09:01.586Z,98.45
2023-04-10T01:11:11.451Z,100.00
2023-04-10T01:13:22.050Z,100.00
2023-04-10T01:15:27.917Z,98.79
2023-04-10T01:17:36.814Z,100.00
2023-04-10T01:20:03.138Z,98.55
2023-04-10T01:22:10.505Z,99.00
2023-04-10T01:24:25.411Z,100.00
2023-04-10T01:26:43.221Z,100.00
2023-04-10T01:29:01.508Z,100.00
2023-04-10T01:31:09.394Z,100.00
2023-04-10T01:33:15.037Z,100.00
2023-04-10T01:35:18.954Z,100.00
2023-04-10T01:37:25.652Z,100.00
2023-04-10T01:39:30.354Z,100.00
2023-04-10T01:41:37.238Z,100.00
2023-04-10T01:43:43.836Z,100.00
2023-04-10T01:45:52.696Z,100.00
2023-04-10T01:47:56.769Z,99.56
2023-04-10T01:50:00.474Z,100.00
2023-04-10T01:52:03.534Z,100.00
2023-04-10T01:54:07.244Z,100.00
2023-04-10T01:56:11.472Z,100.00
2023-04-10T01:58:20.870Z,100.00
2023-04-10T02:00:23.765Z,100.00
2023-04-10T02:02:32.065Z,100.00
2023-04-10T02:04:35.467Z,100.00
2023-04-10T02:06:46.037Z,100.00
2023-04-10T02:08:54.076Z,100.00
2023-04-10T02:11:03.540Z,100.00
2023-04-10T02:13:08.279Z,100.00
2023-04-10T02:15:12.971Z,100.00
2023-04-10T02:17:19.580Z,100.00
2023-04-10T02:19:28.887Z,100.00
2023-04-10T02:21:31.783Z,100.00
2023-04-10T02:23:34.922Z,100.00
2023-04-10T02:25:37.770Z,100.00
2023-04-10T02:27:40.894Z,100.00
2023-04-10T02:29:43.665Z,100.00
2023-04-10T02:31:47.389Z,100.00
2023-04-10T02:33:50.421Z,100.00
2023-04-10T02:35:54.581Z,100.00
2023-04-10T02:37:58.400Z,100.00
2023-04-10T02:40:01.301Z,100.00
2023-04-10T02:42:09.886Z,100.00
2023-04-10T02:44:14.307Z,100.00
2023-04-10T02:46:17.206Z,100.00
2023-04-10T02:48:20.102Z,100.00
2023-04-10T02:50:29.697Z,100.00
2023-04-10T02:52:33.972Z,100.00
2023-04-10T02:54:37.461Z,100.00
2023-04-10T02:56:40.427Z,100.00
2023-04-10T02:58:46.142Z,100.00
2023-04-10T03:00:50.802Z,100.00
2023-04-10T03:03:00.650Z,100.00
2023-04-10T03:05:11.417Z,100.00
2023-04-10T03:07:14.286Z,100.00
2023-04-10T03:09:18.661Z,100.00
2023-04-10T03:11:21.586Z,100.00
2023-04-10T03:13:24.429Z,100.00
2023-04-10T03:15:27.197Z,100.00
2023-04-10T03:17:30.010Z,100.00
2023-04-10T03:19:32.847Z,100.00
2023-04-10T03:21:35.643Z,100.00
2023-04-10T03:23:42.868Z,100.00
2023-04-10T03:25:51.231Z,100.00
2023-04-10T03:27:54.456Z,100.00
2023-04-10T03:29:58.526Z,100.00
2023-04-10T03:32:01.571Z,100.00
2023-04-10T03:34:05.707Z,100.00
2023-04-10T03:36:09.804Z,100.00
2023-04-10T03:38:12.645Z,100.00
2023-04-10T03:40:15.567Z,100.00
2023-04-10T03:42:20.022Z,100.00
2023-04-10T03:44:23.098Z,100.00
2023-04-10T03:46:27.108Z,100.00
2023-04-10T03:48:30.734Z,100.00
2023-04-10T03:50:33.751Z,100.00
2023-04-10T03:52:36.580Z,100.00
2023-04-10T03:54:39.995Z,100.00
2023-04-10T03:56:44.023Z,100.00
2023-04-10T03:58:48.852Z,100.00
2023-04-10T04:00:51.785Z,100.00
2023-04-10T04:03:05.178Z,100.00
2023-04-10T04:05:46.603Z,100.00
2023-04-10T04:08:00.598Z,100.00
2023-04-10T04:10:12.212Z,100.00
2023-04-10T04:12:24.747Z,100.00
2023-04-10T04:14:46.748Z,100.00
2023-04-10T04:17:01.454Z,100.00
2023-04-10T04:19:31.607Z,100.00
2023-04-10T04:22:00.990Z,100.00
2023-04-10T04:24:18.941Z,100.00
2023-04-10T04:26:29.984Z,100.00
2023-04-10T04:29:07.845Z,100.00
2023-04-10T04:31:32.453Z,100.00
2023-04-10T04:33:54.135Z,100.00
2023-04-10T04:36:24.672Z,100.00
2023-04-10T04:38:40.040Z,100.00
2023-04-10T04:41:02.328Z,100.00
2023-04-10T04:43:14.205Z,100.00
2023-04-10T04:45:37.308Z,100.00
2023-04-10T04:47:45.723Z,100.00
2023-04-10T04:50:02.190Z,100.00
2023-04-10T04:52:32.591Z,100.00
2023-04-10T04:54:55.772Z,100.00
2023-04-10T04:57:12.411Z,100.00
2023-04-10T04:59:35.498Z,100.00
2023-04-10T05:01:43.620Z,100.00
2023-04-10T05:03:55.484Z,100.00
2023-04-10T05:06:12.276Z,100.00
2023-04-10T05:08:41.995Z,100.00
2023-04-10T05:11:04.388Z,100.00
2023-04-10T05:13:25.728Z,100.00
2023-04-10T05:15:46.032Z,100.00
2023-04-10T05:18:13.738Z,100.00
2023-04-10T05:20:32.445Z,100.00
2023-04-10T05:22:53.968Z,100.00
2023-04-10T05:25:11.381Z,100.00
2023-04-10T05:27:35.044Z,100.00
2023-04-10T05:30:01.996Z,100.00
2023-04-10T05:32:23.991Z,100.00
2023-04-10T05:34:36.685Z,100.00
2023-04-10T05:37:12.845Z,100.00
2023-04-10T05:39:38.079Z,100.00
2023-04-10T05:42:16.287Z,100.00
2023-04-10T05:44:23.255Z,100.00
2023-04-10T05:46:41.802Z,100.00
2023-04-10T05:49:01.818Z,100.00
2023-04-10T05:51:18.176Z,100.00
2023-04-10T05:53:53.083Z,100.00
2023-04-10T05:56:02.065Z,100.00
2023-04-10T05:58:23.752Z,100.00
2023-04-10T06:00:46.779Z,100.00
2023-04-10T06:03:08.009Z,100.00
2023-04-10T06:05:21.601Z,100.00
2023-04-10T06:07:24.481Z,100.00
2023-04-10T06:09:28.597Z,100.00
2023-04-10T06:11:31.858Z,100.00
2023-04-10T06:13:36.048Z,100.00
2023-04-10T06:15:39.342Z,100.00
2023-04-10T06:17:44.219Z,100.00
2023-04-10T06:19:47.025Z,100.00
2023-04-10T06:21:49.808Z,100.00
2023-04-10T06:23:52.728Z,100.00
2023-04-10T06:25:57.235Z,100.00
2023-04-10T06:28:00.142Z,100.00
2023-04-10T06:30:03.072Z,100.00
2023-04-10T06:32:06.317Z,100.00
2023-04-10T06:34:12.950Z,100.00
2023-04-10T06:36:26.063Z,98.84
2023-04-10T06:38:37.814Z,99.28
2023-04-10T06:40:41.565Z,98.91
2023-04-10T06:42:45.647Z,98.07
2023-04-10T06:44:51.928Z,99.36
2023-04-10T06:46:54.798Z,98.86
2023-04-10T06:48:57.622Z,99.31
2023-04-10T06:51:01.502Z,98.05
2023-04-10T06:53:04.463Z,96.22
2023-04-10T06:55:08.274Z,93.48
2023-04-10T06:57:11.102Z,91.78
2023-04-10T06:59:15.717Z,90.04
2023-04-10T07:01:18.534Z,88.70
2023-04-10T07:03:21.408Z,84.73
2023-04-10T07:05:24.519Z,83.27
2023-04-10T07:07:27.301Z,81.64
2023-04-10T07:09:30.752Z,82.21
2023-04-10T07:11:33.505Z,81.31
2023-04-10T07:13:38.805Z,80.90
2023-04-10T07:15:42.926Z,80.65
2023-04-10T07:17:45.759Z,81.87
2023-04-10T07:19:48.544Z,82.89
2023-04-10T07:21:51.496Z,82.48
2023-04-10T07:23:54.277Z,80.66
2023-04-10T07:25:58.279Z,80.36
2023-04-10T07:28:01.031Z,79.45
2023-04-10T07:30:03.895Z,79.25
2023-04-10T07:32:08.238Z,78.69
2023-04-10T07:34:11.985Z,77.44
2023-04-10T07:36:14.803Z,73.58
2023-04-10T07:38:17.858Z,73.44
2023-04-10T07:40:20.907Z,71.25
2023-04-10T07:42:24.028Z,70.95
2023-04-10T07:44:28.546Z,70.33
2023-04-10T07:46:31.286Z,70.23
2023-04-10T07:48:35.376Z,69.46
2023-04-10T07:50:38.152Z,69.90
2023-04-10T07:52:40.927Z,68.93
2023-04-10T07:54:43.707Z,67.32
2023-04-10T07:56:46.536Z,67.97
2023-04-10T07:58:49.980Z,69.37
2023-04-10T08:00:52.823Z,69.26
2023-04-10T08:02:55.808Z,69.77
2023-04-10T08:05:00.102Z,67.24
2023-04-10T08:07:02.882Z,65.03
2023-04-10T08:09:05.704Z,64.54
2023-04-10T08:11:23.018Z,64.22
2023-04-10T08:13:25.801Z,62.76
2023-04-10T08:15:28.620Z,64.27
2023-04-10T08:17:31.376Z,63.82
2023-04-10T08:19:34.149Z,63.21
2023-04-10T08:21:38.242Z,62.14
2023-04-10T08:23:40.964Z,61.45
2023-04-10T08:25:43.779Z,60.94
2023-04-10T08:27:46.572Z,60.96
2023-04-10T08:29:49.361Z,58.57
2023-04-10T08:31:52.114Z,59.68
2023-04-10T08:33:55.348Z,59.56
2023-04-10T08:35:58.549Z,59.21
2023-04-10T08:38:13.406Z,60.03
2023-04-10T08:40:17.312Z,60.82
2023-04-10T08:42:20.074Z,57.42
2023-04-10T08:44:22.854Z,55.99
2023-04-10T08:46:26.070Z,57.52
2023-04-10T08:48:35.957Z,57.28
2023-04-10T08:50:43.291Z,56.18
2023-04-10T08:52:49.159Z,56.03
2023-04-10T08:54:56.626Z,55.13
2023-04-10T08:57:01.311Z,55.09
2023-04-10T08:59:04.742Z,54.75
2023-04-10T09:01:08.313Z,55.15
2023-04-10T09:03:14.309Z,53.20
2023-04-10T09:05:17.651Z,49.80
2023-04-10T09:07:20.441Z,49.38
2023-04-10T09:09:23.134Z,50.39
2023-04-10T09:12:03.853Z,48.81
2023-04-10T09:14:21.493Z,50.34
2023-04-10T09:16:30.104Z,50.68
2023-04-10T09:18:51.628Z,51.05
2023-04-10T09:20:54.412Z,49.95
2023-04-10T09:22:57.606Z,48.54
2023-04-10T09:25:01.317Z,48.13
2023-04-10T09:27:05.975Z,47.06
2023-04-10T09:29:10.948Z,46.36
2023-04-10T09:31:29.914Z,45.92
2023-04-10T09:33:32.756Z,45.31
2023-04-10T09:35:39.492Z,45.37
2023-04-10T09:37:43.371Z,44.34
2023-04-10T09:39:46.119Z,43.70
2023-04-10T09:41:50.882Z,45.23
2023-04-10T09:44:06.807Z,44.37
2023-04-10T09:46:09.612Z,44.69
2023-04-10T09:48:12.389Z,43.35
2023-04-10T09:50:15.211Z,41.85
2023-04-10T09:52:22.498Z,41.65
2023-04-10T09:54:38.293Z,40.74
2023-04-10T09:56:41.026Z,40.91
2023-04-10T09:58:43.917Z,40.40
2023-04-10T10:00:50.074Z,40.08
2023-04-10T10:02:54.479Z,39.54
2023-04-10T10:05:00.637Z,39.59
2023-04-10T10:07:03.639Z,40.08
2023-04-10T10:09:06.831Z,39.03
2023-04-10T10:11:12.152Z,38.21
2023-04-10T10:13:18.945Z,38.10
2023-04-10T10:15:29.694Z,37.14
2023-04-10T10:17:40.471Z,36.78
2023-04-10T10:19:51.206Z,36.76
2023-04-10T10:21:55.870Z,36.98
2023-04-10T10:24:01.615Z,36.74
2023-04-10T10:26:06.714Z,36.27
2023-04-10T10:28:14.155Z,36.22
2023-04-10T10:30:29.374Z,35.22
2023-04-10T10:32:35.676Z,35.02
2023-04-10T10:34:38.638Z,35.48
2023-04-10T10:36:41.587Z,35.74
2023-04-10T10:38:59.006Z,33.99
2023-04-10T10:41:07.709Z,34.46
2023-04-10T10:43:16.146Z,34.48
2023-04-10T10:45:23.251Z,34.50
2023-04-10T10:47:28.900Z,34.00
2023-04-10T10:49:54.626Z,33.64
2023-04-10T10:51:57.317Z,33.91
2023-04-10T10:54:00.040Z,34.18
2023-04-10T10:56:34.377Z,34.11
2023-04-10T10:58:50.882Z,32.33
2023-04-10T11:01:10.788Z,32.86
2023-04-10T11:03:29.260Z,31.93
2023-04-10T11:05:54.179Z,31.51
2023-04-10T11:08:09.906Z,30.81
2023-04-10T11:10:12.687Z,31.20
2023-04-10T11:12:16.548Z,30.42
2023-04-10T11:14:20.319Z,30.04
2023-04-10T11:16:24.533Z,30.47
2023-04-10T11:19:13.109Z,29.65
2023-04-10T11:21:20.006Z,29.63
2023-04-10T11:23:22.839Z,29.43
2023-04-10T11:25:47.529Z,29.11
2023-04-10T11:27:51.618Z,28.78
2023-04-10T11:29:54.871Z,28.27
2023-04-10T11:31:59.076Z,28.05
2023-04-10T11:34:03.904Z,28.21
2023-04-10T11:36:07.746Z,27.66
2023-04-10T11:38:14.381Z,27.33
2023-04-10T11:40:17.377Z,26.92
2023-04-10T11:42:21.969Z,26.54
2023-04-10T11:44:35.837Z,26.46
2023-04-10T11:46:39.565Z,26.82
2023-04-10T11:48:42.302Z,27.36
2023-04-10T11:50:45.488Z,26.46
2023-04-10T11:52:48.765Z,25.75
2023-04-10T11:54:52.822Z,26.11
2023-04-10T11:57:02.116Z,26.14
2023-04-10T11:59:07.637Z,26.03
2023-04-10T12:01:14.294Z,25.41
2023-04-10T12:03:17.091Z,24.84
2023-04-10T12:05:20.083Z,25.08
2023-04-10T12:07:25.473Z,24.42
2023-04-10T12:09:28.245Z,24.15
2023-04-10T12:11:32.368Z,23.38
2023-04-10T12:13:35.090Z,21.95
2023-04-10T12:15:38.715Z,22.04
2023-04-10T12:17:41.515Z,21.65
2023-04-10T12:19:44.280Z,21.38
2023-04-10T12:21:47.526Z,21.60
2023-04-10T12:23:50.278Z,21.92
2023-04-10T12:25:53.389Z,21.21
2023-04-10T12:27:57.506Z,21.45
2023-04-10T12:30:00.282Z,21.73
2023-04-10T12:32:09.309Z,20.96
2023-04-10T12:34:19.658Z,21.10
2023-04-10T12:36:22.990Z,21.27
2023-04-10T12:38:39.896Z,21.35
2023-04-10T12:41:00.479Z,20.49
2023-04-10T12:43:04.645Z,20.69
2023-04-10T12:45:09.873Z,20.12
2023-04-10T12:47:12.607Z,20.11
2023-04-10T12:49:17.194Z,21.02
2023-04-10T12:51:20.048Z,20.77
2023-04-10T12:53:22.906Z,20.77
2023-04-10T12:55:25.845Z,21.78
2023-04-10T12:57:28.679Z,22.41
2023-04-10T12:59:32.773Z,21.71
2023-04-10T13:01:35.601Z,21.97
2023-04-10T13:03:39.185Z,21.60
2023-04-10T13:05:42.183Z,21.51
2023-04-10T13:07:44.936Z,22.20
2023-04-10T13:09:47.667Z,22.60
2023-04-10T13:11:52.409Z,22.08
2023-04-10T13:13:55.345Z,21.70
2023-04-10T13:15:59.690Z,22.46
2023-04-10T13:18:05.243Z,22.69
2023-04-10T13:20:10.745Z,22.59
2023-04-10T13:22:13.483Z,22.36
2023-04-10T13:24:16.880Z,22.27
2023-04-10T13:26:19.711Z,22.61
2023-04-10T13:28:22.548Z,22.61
2023-04-10T13:30:25.292Z,22.47
2023-04-10T13:32:29.374Z,22.36
2023-04-10T13:34:32.215Z,22.16
2023-04-10T13:36:35.038Z,22.45
2023-04-10T13:38:38.524Z,22.89
2023-04-10T13:40:41.297Z,22.35
2023-04-10T13:42:44.044Z,22.15
2023-04-10T13:44:46.814Z,22.45
2023-04-10T13:46:49.609Z,22.58
2023-04-10T13:48:53.701Z,21.92
2023-04-10T13:50:56.445Z,22.17
2023-04-10T13:52:59.225Z,22.27
2023-04-10T13:55:02.150Z,22.39
2023-04-10T13:57:05.114Z,22.55
2023-04-10T13:59:07.902Z,23.27
2023-04-10T14:01:12.369Z,22.80
2023-04-10T14:03:15.316Z,22.79
2023-04-10T14:05:19.685Z,21.98
2023-04-10T14:07:22.492Z,22.84
2023-04-10T14:09:25.467Z,22.58
2023-04-10T14:11:28.226Z,21.95
2023-04-10T14:13:31.033Z,22.02
2023-04-10T14:15:33.896Z,22.67
2023-04-10T14:17:36.740Z,22.23
2023-04-10T14:19:39.856Z,21.75
2023-04-10T14:21:44.584Z,21.98
2023-04-10T14:23:47.402Z,20.75
2023-04-10T14:25:51.282Z,20.81
2023-04-10T14:27:54.066Z,21.09
2023-04-10T14:29:56.860Z,20.78
2023-04-10T14:31:59.823Z,20.89
2023-04-10T14:34:02.609Z,20.83
2023-04-10T14:36:06.118Z,20.82
2023-04-10T14:38:10.790Z,20.34
2023-04-10T14:40:13.560Z,20.46
2023-04-10T14:42:16.372Z,20.84
2023-04-10T14:44:19.290Z,20.54
2023-04-10T14:46:22.022Z,20.10
2023-04-10T14:48:24.937Z,20.17
2023-04-10T14:50:27.775Z,20.28
2023-04-10T14:52:30.609Z,20.85
2023-04-10T14:54:34.746Z,20.63
2023-04-10T14:56:37.538Z,20.59
2023-04-10T14:58:40.388Z,20.42
2023-04-10T15:00:43.687Z,21.02
2023-04-10T15:02:46.723Z,21.35
2023-04-10T15:04:49.618Z,21.52
2023-04-10T15:06:52.344Z,21.32
2023-04-10T15:08:55.887Z,22.15
2023-04-10T15:11:00.324Z,22.23
2023-04-10T15:13:03.278Z,22.13
2023-04-10T15:15:07.116Z,21.67
2023-04-10T15:17:09.905Z,21.94
2023-04-10T15:19:12.834Z,21.52
2023-04-10T15:21:15.657Z,21.14
2023-04-10T15:23:18.436Z,21.21
2023-04-10T15:25:21.177Z,21.28
2023-04-10T15:27:25.360Z,21.42
2023-04-10T15:29:28.799Z,21.17
2023-04-10T15:31:31.586Z,22.06
2023-04-10T15:33:36.126Z,22.50
2023-04-10T15:35:38.883Z,23.01
2023-04-10T15:37:41.654Z,23.59
2023-04-10T15:39:44.333Z,24.18
2023-04-10T15:41:48.382Z,24.59
2023-04-10T15:43:52.819Z,24.65
2023-04-10T15:45:56.109Z,24.92
2023-04-10T15:48:01.093Z,25.00
2023-04-10T15:50:04.581Z,25.07
2023-04-10T15:52:07.844Z,25.25
2023-04-10T15:54:11.054Z,25.80
2023-04-10T15:56:15.981Z,26.05
2023-04-10T15:58:18.929Z,26.00
2023-04-10T16:00:26.255Z,25.98
2023-04-10T16:02:29.184Z,26.37
2023-04-10T16:04:32.489Z,26.95
2023-04-10T16:06:35.412Z,27.41
2023-04-10T16:08:38.154Z,27.49
2023-04-10T16:10:40.934Z,27.77
2023-04-10T16:12:43.561Z,27.61
2023-04-10T16:14:46.273Z,27.46
2023-04-10T16:16:50.949Z,27.96
2023-04-10T16:18:54.175Z,28.16
2023-04-10T16:20:56.925Z,28.40
2023-04-10T16:22:59.895Z,28.83
2023-04-10T16:27:10.298Z,29.29
2023-04-10T16:29:12.954Z,29.37
2023-04-10T16:31:15.670Z,29.52
2023-04-10T16:33:19.764Z,29.82
2023-04-10T16:35:22.764Z,29.74
2023-04-10T16:37:25.489Z,29.99
2023-04-10T16:39:28.281Z,30.25
2023-04-10T16:41:31.080Z,30.72
2023-04-10T16:43:33.783Z,30.76
2023-04-10T16:45:36.459Z,31.48
2023-04-10T16:47:40.402Z,31.62
2023-04-10T16:49:45.700Z,32.31
2023-04-10T16:51:48.421Z,32.83
2023-04-10T16:53:51.147Z,33.42
2023-04-10T16:55:58.512Z,33.82
2023-04-10T16:58:01.225Z,34.10
2023-04-10T17:00:04.276Z,34.27
2023-04-10T17:02:07.101Z,34.96
2023-04-10T17:04:10.512Z,34.95
2023-04-10T17:06:15.892Z,35.12
2023-04-10T17:08:18.687Z,35.01
2023-04-10T17:10:21.375Z,35.09
2023-04-10T17:12:24.111Z,35.42
2023-04-10T17:14:26.837Z,35.43
2023-04-10T17:16:29.565Z,35.69
2023-04-10T17:18:32.367Z,36.34
2023-04-10T17:20:36.820Z,36.51
2023-04-10T17:22:41.083Z,36.96
2023-04-10T17:24:44.562Z,37.76
2023-04-10T17:26:47.413Z,37.87
2023-04-10T17:28:50.902Z,38.48
2023-04-10T17:30:53.697Z,39.59
2023-04-10T17:32:56.445Z,39.67
2023-04-10T17:34:59.344Z,40.05
2023-04-10T17:37:02.455Z,40.43
2023-04-10T17:39:06.642Z,40.60
2023-04-10T17:41:10.288Z,40.95
2023-04-10T17:43:13.016Z,41.56
2023-04-10T17:45:15.933Z,42.91
2023-04-10T17:47:18.880Z,43.03
2023-04-10T17:49:22.293Z,44.07
2023-04-10T17:51:25.112Z,44.48
2023-04-10T17:53:27.882Z,45.66
2023-04-10T17:55:32.053Z,44.35
2023-04-10T17:57:34.789Z,44.85
2023-04-10T17:59:37.579Z,45.87
2023-04-10T18:01:40.478Z,46.03
2023-04-10T18:03:43.412Z,46.36
2023-04-10T18:05:46.208Z,46.88
2023-04-10T18:07:49.033Z,45.63
2023-04-10T18:09:51.814Z,44.44
2023-04-10T18:11:56.048Z,44.12
2023-04-10T18:13:58.776Z,44.00
2023-04-10T18:16:02.164Z,43.96
2023-04-10T18:18:04.952Z,43.91
2023-04-10T18:20:08.622Z,43.73
2023-04-10T18:22:11.825Z,43.75
2023-04-10T18:24:15.040Z,43.88
2023-04-10T18:26:20.728Z,43.63
2023-04-10T18:28:24.840Z,43.37
2023-04-10T18:30:27.582Z,43.80
2023-04-10T18:32:30.381Z,44.73
2023-04-10T18:34:33.140Z,44.78
2023-04-10T18:36:35.988Z,45.21
2023-04-10T18:38:41.105Z,45.21
2023-04-10T18:40:43.879Z,45.55
2023-04-10T18:42:46.617Z,46.49
2023-04-10T18:44:50.802Z,46.22
2023-04-10T18:47:01.430Z,46.83
2023-04-10T18:49:06.427Z,46.22
2023-04-10T18:51:10.022Z,46.59
2023-04-10T18:53:12.793Z,47.07
2023-04-10T18:55:15.936Z,46.10
2023-04-10T18:57:18.647Z,46.06
2023-04-10T18:59:22.452Z,47.18
2023-04-10T19:01:26.531Z,47.08
2023-04-10T19:03:29.573Z,46.80
2023-04-10T19:05:33.527Z,46.88
2023-04-10T19:07:36.317Z,48.63
2023-04-10T19:09:38.983Z,47.83
2023-04-10T19:11:42.681Z,47.65
2023-04-10T19:13:45.600Z,47.70
2023-04-10T19:15:49.899Z,47.80
2023-04-10T19:17:54.892Z,48.37
2023-04-10T19:19:58.751Z,48.49
2023-04-10T19:22:01.894Z,49.17
2023-04-10T19:24:04.756Z,49.97
2023-04-10T19:26:08.634Z,50.53
2023-04-10T19:28:11.383Z,50.72
2023-04-10T19:30:15.453Z,50.95
2023-04-10T19:32:18.454Z,51.98
2023-04-10T19:34:22.572Z,52.46
2023-04-10T19:36:27.116Z,52.27
2023-04-10T19:38:30.597Z,52.97
2023-04-10T19:40:33.319Z,54.75
2023-04-10T19:42:36.549Z,55.32
2023-04-10T19:44:39.414Z,55.88
2023-04-10T19:46:42.513Z,56.21
2023-04-10T19:48:45.652Z,56.25
2023-04-10T19:50:49.791Z,56.08
2023-04-10T19:52:52.843Z,55.61
2023-04-10T19:54:55.661Z,55.64
2023-04-10T19:56:58.651Z,54.69
2023-04-10T19:59:01.920Z,54.39
2023-04-10T20:01:05.288Z,53.59
2023-04-10T20:03:08.320Z,53.72
2023-04-10T20:05:11.438Z,53.83
2023-04-10T20:07:15.673Z,53.74
2023-04-10T20:09:18.538Z,53.72
2023-04-10T20:11:21.279Z,54.29
2023-04-10T20:13:24.024Z,54.37
2023-04-10T20:15:26.935Z,54.22
2023-04-10T20:17:30.166Z,53.71
2023-04-10T20:19:32.937Z,53.06
2023-04-10T20:21:35.787Z,52.60
2023-04-10T20:23:39.901Z,53.30
2023-04-10T20:25:42.706Z,52.76
2023-04-10T20:27:45.496Z,52.96
2023-04-10T20:29:48.334Z,52.99
2023-04-10T20:31:51.174Z,51.87
2023-04-10T20:33:54.751Z,52.08
2023-04-10T20:35:57.649Z,52.00
2023-04-10T20:38:00.489Z,51.32
2023-04-10T20:40:05.075Z,52.73
2023-04-10T20:42:07.816Z,52.06
2023-04-10T20:44:10.572Z,52.48
2023-04-10T20:46:13.643Z,52.65
2023-04-10T20:48:16.342Z,52.50
2023-04-10T20:50:19.578Z,52.44
2023-04-10T20:52:22.470Z,52.69
2023-04-10T20:54:26.800Z,53.12
2023-04-10T20:56:40.600Z,52.69
2023-04-10T20:58:46.032Z,52.91
2023-04-10T21:00:51.527Z,52.72
2023-04-10T21:02:54.450Z,52.90
2023-04-10T21:04:57.385Z,53.40
2023-04-10T21:07:00.167Z,53.00
2023-04-10T21:09:02.949Z,53.84
2023-04-10T21:11:05.818Z,54.49
2023-04-10T21:13:09.962Z,54.97
2023-04-10T21:15:12.773Z,55.70
2023-04-10T21:17:15.930Z,56.23
2023-04-10T21:19:18.697Z,55.23
2023-04-10T21:21:21.489Z,54.65
2023-04-10T21:23:24.259Z,54.69
2023-04-10T21:25:27.041Z,54.23
2023-04-10T21:27:29.811Z,53.34
2023-04-10T21:29:33.956Z,54.13
2023-04-10T21:31:36.802Z,53.81
2023-04-10T21:33:39.575Z,53.39
2023-04-10T21:35:43.474Z,53.91
2023-04-10T21:37:46.265Z,54.29
2023-04-10T21:39:49.048Z,53.97
2023-04-10T21:41:51.887Z,54.90
2023-04-10T21:43:56.441Z,55.58
2023-04-10T21:46:02.697Z,55.77
2023-04-10T21:48:05.861Z,55.99
2023-04-10T21:50:09.573Z,56.68
2023-04-10T21:52:12.529Z,57.07
2023-04-10T21:54:15.351Z,57.63
2023-04-10T21:56:18.078Z,57.04
2023-04-10T21:58:20.822Z,57.26
2023-04-10T22:00:23.649Z,57.45
2023-04-10T22:02:27.930Z,58.08
2023-04-10T22:04:33.093Z,57.95
2023-04-10T22:06:36.003Z,58.78
2023-04-10T22:08:39.116Z,59.46
2023-04-10T22:10:44.853Z,59.72
2023-04-10T22:12:48.813Z,60.29
2023-04-10T22:14:52.041Z,61.51
2023-04-10T22:16:56.050Z,62.05
2023-04-10T22:19:00.709Z,62.95
2023-04-10T22:21:03.395Z,63.69
2023-04-10T22:23:06.989Z,64.89
2023-04-10T22:25:10.045Z,65.22
2023-04-10T22:27:12.725Z,65.81
2023-04-10T22:29:15.596Z,66.26
2023-04-10T22:31:19.916Z,67.06
2023-04-10T22:33:22.755Z,68.01
2023-04-10T22:35:26.861Z,69.32
2023-04-10T22:37:29.623Z,70.17
2023-04-10T22:39:32.310Z,73.06
2023-04-10T22:41:35.062Z,74.00
2023-04-10T22:43:37.783Z,74.26
2023-04-10T22:45:41.672Z,75.06
2023-04-10T22:47:44.452Z,75.06
2023-04-10T22:49:47.180Z,74.19
2023-04-10T22:51:51.249Z,74.82
2023-04-10T22:53:54.020Z,75.08
2023-04-10T22:55:56.734Z,75.24
2023-04-10T22:57:59.431Z,73.85
2023-04-10T23:00:02.121Z,74.42
2023-04-10T23:02:05.061Z,73.31
2023-04-10T23:04:07.988Z,73.54
2023-04-10T23:06:10.943Z,73.60
2023-04-10T23:08:15.254Z,73.53
2023-04-10T23:10:18.040Z,73.06
2023-04-10T23:12:20.737Z,74.00
2023-04-10T23:14:23.605Z,73.91
2023-04-10T23:16:26.381Z,73.46
2023-04-10T23:18:29.181Z,73.46
2023-04-10T23:20:31.866Z,72.35
2023-04-10T23:22:34.578Z,72.31
2023-04-10T23:24:38.890Z,71.25
2023-04-10T23:26:41.576Z,72.92
2023-04-10T23:28:44.256Z,72.17
2023-04-10T23:30:47.029Z,72.56
2023-04-10T23:32:49.732Z,72.35
2023-04-10T23:34:52.490Z,72.59
2023-04-10T23:36:55.745Z,70.90
2023-04-10T23:38:58.477Z,71.10
2023-04-10T23:41:03.590Z,70.09
2023-04-10T23:43:06.393Z,70.44
2023-04-10T23:45:10.324Z,70.65
2023-04-10T23:47:13.353Z,71.40
2023-04-10T23:49:16.139Z,70.42
2023-04-10T23:51:18.867Z,70.01
2023-04-10T23:53:21.614Z,70.74
2023-04-10T23:55:24.417Z,71.02
2023-04-10T23:57:28.881Z,70.58
2023-04-10T23:59:31.627Z,70.99
